Time;durP1;ratioP1;P1;durP2;ratioP2;P2;SDS_P1;SDS_P2;PMS_P1;PMS_P2;Temp;Humidity;BMP_temperature;BMP_pressure;BME280_temperature;BME280_humidity;BME280_pressure;Samples;Min_cycle;Max_cycle;Signal;HPM_P1;HPM_P2
2023/03/15 00:02:07;;;;;;;12.00;1.52;;;2.80;99.90;;;;;;5063607;28;20070;-73
2023/03/15 00:04:34;;;;;;;12.95;1.60;;;2.80;99.90;;;;;;5064688;28;20056;-73
2023/03/15 00:07:00;;;;;;;17.80;1.88;;;2.90;99.90;;;;;;5065660;28;20072;-73
2023/03/15 00:09:26;;;;;;;9.85;1.75;;;2.90;99.90;;;;;;5065358;28;20040;-73
2023/03/15 00:11:53;;;;;;;14.75;2.15;;;2.90;99.90;;;;;;5061262;28;20127;-74
2023/03/15 00:14:19;;;;;;;10.60;1.23;;;2.90;99.90;;;;;;5063006;28;20032;-73
2023/03/15 00:16:45;;;;;;;11.10;1.30;;;3.30;99.90;;;;;;5062872;28;20495;-73
2023/03/15 00:19:12;;;;;;;13.45;1.85;;;2.90;99.90;;;;;;5063039;28;20036;-73
2023/03/15 00:21:42;;;;;;;12.98;1.50;;;3.50;99.90;;;;;;5064662;28;20789;-73
2023/03/15 00:24:10;;;;;;;9.93;1.30;;;2.90;99.90;;;;;;5065719;28;20051;-73
2023/03/15 00:26:36;;;;;;;7.97;1.10;;;3.30;99.90;;;;;;5061237;28;20056;-73
2023/03/15 00:29:02;;;;;;;9.68;1.23;;;2.80;99.90;;;;;;5064518;28;20117;-73
2023/03/15 00:31:28;;;;;;;12.88;1.60;;;2.80;99.90;;;;;;5063124;28;20131;-73
2023/03/15 00:33:53;;;;;;;14.57;1.27;;;2.80;99.90;;;;;;5046793;28;20043;-73
2023/03/15 00:36:23;;;;;;;10.98;1.75;;;2.70;99.90;;;;;;5062587;28;20040;-73
2023/03/15 00:38:49;;;;;;;9.63;1.20;;;2.70;99.90;;;;;;5063432;28;20072;-72
2023/03/15 00:41:17;;;;;;;11.43;1.13;;;3.50;99.90;;;;;;5065678;28;20535;-73
2023/03/15 00:43:45;;;;;;;8.27;1.00;;;3.50;99.90;;;;;;5061604;28;20083;-73
2023/03/15 00:46:12;;;;;;;10.30;1.08;;;2.70;99.90;;;;;;5062973;28;20151;-72
2023/03/15 00:48:38;;;;;;;8.35;1.20;;;2.70;99.90;;;;;;5063414;28;20045;-73
2023/03/15 00:51:10;;;;;;;14.43;1.20;;;2.60;99.90;;;;;;5064538;28;20051;-73
2023/03/15 00:53:37;;;;;;;11.43;1.10;;;2.60;99.90;;;;;;5061095;28;20408;-74
2023/03/15 00:56:28;;;;;;;9.88;0.90;;;2.60;99.90;;;;;;5065328;28;20047;-73
2023/03/15 00:58:54;;;;;;;4.72;0.70;;;2.60;99.90;;;;;;5059568;28;20131;-73
2023/03/15 01:01:24;;;;;;;8.18;1.05;;;2.60;99.90;;;;;;5047514;28;20186;-73
2023/03/15 01:03:49;;;;;;;8.75;0.75;;;2.50;99.90;;;;;;5063208;28;20032;-73
2023/03/15 01:06:18;;;;;;;6.20;2.33;;;2.60;99.90;;;;;;5047121;28;20048;-73
2023/03/15 01:08:44;;;;;;;8.70;1.10;;;2.60;99.90;;;;;;5089878;28;20767;-73
2023/03/15 01:11:13;;;;;;;8.63;1.05;;;2.70;99.90;;;;;;5061864;28;20048;-74
2023/03/15 01:13:40;;;;;;;5.78;1.27;;;2.60;99.90;;;;;;5061357;28;20052;-74
2023/03/15 01:16:07;;;;;;;9.00;1.85;;;3.50;99.90;;;;;;5065790;28;20036;-73
2023/03/15 01:18:33;;;;;;;9.77;1.00;;;2.50;99.90;;;;;;5062741;28;20452;-74
2023/03/15 01:20:59;;;;;;;6.93;0.90;;;2.60;99.90;;;;;;5046072;28;20146;-73
2023/03/15 01:23:25;;;;;;;8.70;1.00;;;2.50;99.90;;;;;;5062905;28;20102;-73
2023/03/15 01:25:51;;;;;;;10.80;2.60;;;2.50;99.90;;;;;;5059964;28;20045;-73
2023/03/15 01:28:17;;;;;;;8.65;1.30;;;3.00;99.90;;;;;;5061225;28;20036;-73
2023/03/15 01:30:52;;;;;;;6.80;0.90;;;2.50;99.90;;;;;;5045102;28;22076;-73
2023/03/15 01:33:19;;;;;;;9.35;1.30;;;2.50;99.90;;;;;;5062192;28;20093;-73
2023/03/15 01:35:46;;;;;;;5.50;0.90;;;2.70;99.90;;;;;;5062042;28;20048;-73
2023/03/15 01:38:12;;;;;;;8.27;1.00;;;2.50;99.90;;;;;;5064269;28;20047;-73
2023/03/15 01:40:45;;;;;;;8.32;1.05;;;2.50;99.90;;;;;;5062395;28;20044;-73
2023/03/15 01:43:22;;;;;;;12.05;1.38;;;2.40;99.90;;;;;;5061404;28;20040;-73
2023/03/15 01:46:06;;;;;;;10.25;1.67;;;2.40;99.90;;;;;;5061074;28;20059;-73
2023/03/15 01:48:34;;;;;;;6.82;1.33;;;2.40;99.90;;;;;;5060689;28;20139;-73
2023/03/15 01:51:05;;;;;;;10.93;1.20;;;2.40;99.90;;;;;;5062287;28;20091;-73
2023/03/15 01:53:32;;;;;;;13.65;1.48;;;2.30;99.90;;;;;;5061923;28;20117;-74
2023/03/15 01:55:59;;;;;;;13.40;1.67;;;2.30;99.90;;;;;;5064547;28;20033;-73
2023/03/15 01:58:26;;;;;;;7.60;0.98;;;2.30;99.90;;;;;;5063771;28;20859;-72
2023/03/15 02:00:52;;;;;;;9.40;1.08;;;2.50;99.90;;;;;;5065846;28;20058;-74
2023/03/15 02:03:25;;;;;;;6.18;1.25;;;2.30;99.90;;;;;;5046599;28;20119;-75
2023/03/15 02:05:55;;;;;;;8.88;1.23;;;2.30;99.90;;;;;;5043935;28;20777;-73
2023/03/15 02:08:24;;;;;;;9.68;1.90;;;2.30;99.90;;;;;;5062049;28;20496;-74
2023/03/15 02:10:52;;;;;;;10.90;1.15;;;2.30;99.90;;;;;;5058767;28;20094;-75
2023/03/15 02:13:23;;;;;;;11.93;1.20;;;2.30;99.90;;;;;;5063862;28;20067;-74
2023/03/15 02:15:52;;;;;;;8.98;1.25;;;3.00;99.90;;;;;;5059466;28;20113;-73
2023/03/15 02:18:18;;;;;;;7.10;1.00;;;2.20;99.90;;;;;;5058738;28;20052;-73
2023/03/15 02:20:47;;;;;;;6.93;1.25;;;2.20;99.90;;;;;;5060653;28;20044;-73
2023/03/15 02:23:16;;;;;;;11.85;1.85;;;2.20;99.90;;;;;;5061814;28;20165;-73
2023/03/15 02:26:03;;;;;;;16.50;1.50;;;2.10;99.90;;;;;;5088122;28;20045;-73
2023/03/15 02:28:29;;;;;;;8.85;1.02;;;2.10;99.90;;;;;;5091450;28;20203;-73
2023/03/15 02:30:56;;;;;;;10.43;1.80;;;2.10;99.90;;;;;;5063107;28;20045;-73
2023/03/15 02:33:31;;;;;;;7.63;1.00;;;2.10;99.90;;;;;;5060675;28;20079;-73
2023/03/15 02:36:26;;;;;;;8.75;1.00;;;2.10;99.90;;;;;;5061311;28;20119;-73
2023/03/15 02:38:54;;;;;;;10.48;1.00;;;2.10;99.90;;;;;;5060040;28;20131;-73
2023/03/15 02:41:41;;;;;;;11.23;1.10;;;2.10;99.90;;;;;;5062800;28;20186;-73
2023/03/15 02:44:14;;;;;;;7.78;1.02;;;2.10;99.90;;;;;;5060014;28;20047;-73
2023/03/15 02:46:42;;;;;;;5.88;1.30;;;2.00;99.90;;;;;;5061904;28;20093;-73
2023/03/15 02:49:09;;;;;;;11.32;1.73;;;2.00;99.90;;;;;;5060692;28;20044;-74
2023/03/15 02:51:35;;;;;;;6.35;0.77;;;2.00;99.90;;;;;;5062407;28;20047;-74
2023/03/15 02:54:01;;;;;;;6.82;0.70;;;2.00;99.90;;;;;;5059272;28;20041;-74
2023/03/15 02:56:26;;;;;;;7.45;0.98;;;2.00;99.90;;;;;;5058502;28;20102;-74
2023/03/15 02:58:52;;;;;;;7.45;0.98;;;2.00;99.90;;;;;;5045121;28;20044;-74
2023/03/15 03:01:18;;;;;;;6.30;1.10;;;2.00;99.90;;;;;;5060345;28;20042;-74
2023/03/15 03:03:45;;;;;;;8.52;1.48;;;1.90;99.90;;;;;;5061315;28;20080;-74
2023/03/15 03:06:12;;;;;;;8.02;1.20;;;1.90;99.90;;;;;;5060657;28;20152;-73
2023/03/15 03:08:45;;;;;;;6.72;1.20;;;1.90;99.90;;;;;;5044053;28;20047;-73
2023/03/15 03:11:12;;;;;;;7.13;1.08;;;2.40;99.90;;;;;;5059985;28;20144;-73
2023/03/15 03:13:38;;;;;;;8.00;1.20;;;1.80;99.90;;;;;;5043342;28;20079;-73
2023/03/15 03:16:03;;;;;;;7.32;0.68;;;1.90;99.90;;;;;;5060969;28;20064;-73
2023/03/15 03:18:34;;;;;;;8.05;1.02;;;1.80;99.90;;;;;;5043427;28;20045;-73
2023/03/15 03:21:01;;;;;;;7.20;1.10;;;1.80;99.90;;;;;;5061006;28;20480;-73
2023/03/15 03:23:27;;;;;;;11.18;1.02;;;2.50;99.90;;;;;;5062400;28;20645;-74
2023/03/15 03:25:54;;;;;;;6.63;1.08;;;1.80;99.90;;;;;;5061270;28;20466;-73
2023/03/15 03:28:24;;;;;;;9.43;0.93;;;1.80;99.90;;;;;;5058395;28;20048;-72
2023/03/15 03:30:52;;;;;;;11.90;1.13;;;1.80;99.90;;;;;;5061278;28;20048;-73
2023/03/15 03:33:18;;;;;;;5.55;1.30;;;1.80;99.90;;;;;;5060644;28;20072;-72
2023/03/15 03:35:44;;;;;;;5.68;1.00;;;1.70;99.90;;;;;;5059829;28;20667;-73
2023/03/15 03:38:10;;;;;;;10.27;1.52;;;1.80;99.90;;;;;;5045215;28;20036;-73
2023/03/15 03:40:37;;;;;;;9.82;1.35;;;1.70;99.90;;;;;;5061190;28;20378;-73
2023/03/15 03:43:03;;;;;;;7.97;0.90;;;1.70;99.90;;;;;;5042384;28;20048;-72
2023/03/15 03:45:28;;;;;;;3.10;0.82;;;1.70;99.90;;;;;;5043757;28;20267;-73
2023/03/15 03:47:54;;;;;;;11.15;1.50;;;1.70;99.90;;;;;;5061641;28;20119;-73
2023/03/15 03:50:20;;;;;;;9.32;0.93;;;1.60;99.90;;;;;;5059187;28;20171;-73
2023/03/15 03:52:46;;;;;;;9.32;1.00;;;1.60;99.90;;;;;;5059655;28;20047;-72
2023/03/15 03:55:15;;;;;;;7.50;0.90;;;1.70;99.90;;;;;;5060420;28;20687;-72
2023/03/15 03:57:42;;;;;;;7.18;1.20;;;1.60;99.90;;;;;;5061409;28;20055;-72
2023/03/15 04:00:11;;;;;;;9.45;1.50;;;1.80;99.90;;;;;;5062174;28;20097;-72
2023/03/15 04:02:37;;;;;;;9.30;1.10;;;1.60;99.90;;;;;;5061908;28;20045;-72
2023/03/15 04:05:03;;;;;;;7.72;1.10;;;1.60;99.90;;;;;;5060716;28;20839;-72
2023/03/15 04:07:28;;;;;;;5.72;0.90;;;1.60;99.90;;;;;;5060380;28;20520;-72
2023/03/15 04:09:54;;;;;;;9.68;1.50;;;1.50;99.90;;;;;;5059202;28;20052;-73
2023/03/15 04:12:20;;;;;;;10.73;1.38;;;1.50;99.90;;;;;;5057175;28;20052;-72
2023/03/15 04:14:46;;;;;;;7.70;1.13;;;1.50;99.90;;;;;;5057782;28;20405;-72
2023/03/15 04:17:11;;;;;;;8.85;0.93;;;1.90;99.90;;;;;;5060535;28;20033;-73
2023/03/15 04:19:37;;;;;;;5.93;0.95;;;1.50;99.90;;;;;;5043958;28;20052;-72
2023/03/15 04:22:05;;;;;;;6.18;0.80;;;1.50;99.90;;;;;;5057385;28;20076;-72
2023/03/15 04:24:35;;;;;;;4.38;0.80;;;1.40;99.90;;;;;;5060602;28;20041;-72
2023/03/15 04:27:01;;;;;;;12.13;1.00;;;1.40;99.90;;;;;;5060278;28;20047;-72
2023/03/15 04:29:28;;;;;;;7.53;1.02;;;1.40;99.90;;;;;;5058389;28;20044;-72
2023/03/15 04:32:00;;;;;;;11.27;0.90;;;1.40;99.90;;;;;;5060157;28;20110;-72
2023/03/15 04:34:27;;;;;;;5.82;1.20;;;1.40;99.90;;;;;;5060732;28;20041;-73
2023/03/15 04:36:55;;;;;;;5.30;1.50;;;1.40;99.90;;;;;;5056769;28;20127;-72
2023/03/15 04:39:21;;;;;;;6.15;1.08;;;1.30;99.90;;;;;;5062839;28;20119;-72
2023/03/15 04:41:46;;;;;;;11.40;1.65;;;1.40;99.90;;;;;;5060366;28;20139;-72
2023/03/15 04:44:15;;;;;;;3.60;0.98;;;1.30;99.90;;;;;;5064674;28;20110;-72
2023/03/15 04:46:41;;;;;;;14.35;1.10;;;1.70;99.90;;;;;;5046569;28;20060;-72
2023/03/15 04:49:07;;;;;;;6.82;1.55;;;1.30;99.90;;;;;;5064583;28;20040;-72
2023/03/15 04:51:33;;;;;;;4.50;0.98;;;1.20;99.90;;;;;;5064037;28;20361;-72
2023/03/15 04:54:00;;;;;;;7.82;1.13;;;1.20;99.90;;;;;;5064548;28;20546;-72
2023/03/15 04:56:26;;;;;;;5.97;1.23;;;1.20;99.90;;;;;;5058779;28;20104;-72
2023/03/15 04:58:52;;;;;;;7.90;1.13;;;1.10;99.90;;;;;;5046468;28;20055;-72
2023/03/15 05:01:17;;;;;;;5.57;1.25;;;1.20;99.90;;;;;;5043745;28;20032;-72
2023/03/15 05:03:44;;;;;;;6.07;0.90;;;1.10;99.90;;;;;;5062461;28;20439;-72
2023/03/15 05:06:10;;;;;;;5.65;1.20;;;1.10;99.90;;;;;;5064608;28;20472;-72
2023/03/15 05:08:36;;;;;;;8.77;1.27;;;1.10;99.90;;;;;;5064200;28;20128;-72
2023/03/15 05:11:04;;;;;;;11.85;1.38;;;1.00;99.90;;;;;;5061021;28;20569;-72
2023/03/15 05:13:30;;;;;;;7.18;1.08;;;1.00;99.90;;;;;;5063580;28;20464;-72
2023/03/15 05:15:56;;;;;;;12.93;1.27;;;1.00;99.90;;;;;;5062632;28;20048;-72
2023/03/15 05:18:23;;;;;;;8.05;1.23;;;0.40;99.90;;;;;;5064309;28;20101;-73
2023/03/15 05:20:49;;;;;;;8.45;1.25;;;0.90;99.90;;;;;;5063062;28;20048;-72
2023/03/15 05:23:15;;;;;;;4.97;1.10;;;0.90;99.90;;;;;;5056819;28;20049;-72
2023/03/15 05:25:42;;;;;;;8.55;1.08;;;0.90;99.90;;;;;;5057752;28;20097;-72
2023/03/15 05:28:07;;;;;;;7.07;1.00;;;0.90;99.90;;;;;;5063435;28;20500;-72
2023/03/15 05:30:33;;;;;;;7.68;1.20;;;0.90;99.90;;;;;;5064469;28;20123;-72
2023/03/15 05:33:03;;;;;;;11.18;1.23;;;0.90;99.90;;;;;;5060366;28;20764;-72
2023/03/15 05:35:29;;;;;;;7.85;1.67;;;0.80;99.90;;;;;;5064037;28;20056;-72
2023/03/15 05:37:55;;;;;;;9.95;1.35;;;0.80;99.90;;;;;;5062307;28;20040;-71
2023/03/15 05:40:20;;;;;;;7.18;1.20;;;0.80;99.90;;;;;;5060903;28;20048;-72
2023/03/15 05:42:46;;;;;;;12.98;1.55;;;0.80;99.90;;;;;;5046578;28;20087;-73
2023/03/15 05:45:12;;;;;;;10.25;1.23;;;0.80;99.90;;;;;;5062987;28;20045;-73
2023/03/15 05:47:37;;;;;;;12.07;1.50;;;1.00;99.90;;;;;;5063186;28;20040;-72
2023/03/15 05:50:04;;;;;;;6.40;1.40;;;0.80;99.90;;;;;;5058383;28;20044;-72
2023/03/15 05:52:30;;;;;;;9.70;1.67;;;0.80;99.90;;;;;;5061494;28;20509;-72
2023/03/15 05:54:56;;;;;;;9.77;1.65;;;1.10;99.90;;;;;;5061337;28;20106;-72
2023/03/15 05:57:22;;;;;;;11.13;1.58;;;0.90;99.90;;;;;;5060493;28;20051;-72
2023/03/15 05:59:48;;;;;;;9.88;1.42;;;0.80;99.90;;;;;;5062092;28;20040;-72
2023/03/15 06:02:13;;;;;;;7.60;1.10;;;0.90;99.90;;;;;;5063027;28;20040;-72
2023/03/15 06:04:40;;;;;;;7.57;1.42;;;0.90;99.90;;;;;;5057603;28;20123;-72
2023/03/15 06:07:06;;;;;;;6.40;1.13;;;0.90;99.90;;;;;;5050585;28;20051;-72
2023/03/15 06:09:32;;;;;;;5.55;1.25;;;1.70;99.90;;;;;;5055996;28;20059;-72
2023/03/15 06:12:00;;;;;;;8.02;0.93;;;1.30;99.90;;;;;;5058304;28;20133;-72
2023/03/15 06:14:26;;;;;;;9.80;1.10;;;1.60;99.90;;;;;;5054967;28;20110;-72
2023/03/15 06:16:52;;;;;;;9.30;1.00;;;0.90;99.90;;;;;;5054299;28;20478;-72
2023/03/15 06:19:20;;;;;;;6.65;1.02;;;0.80;99.90;;;;;;5050140;28;20043;-72
2023/03/15 06:21:46;;;;;;;6.28;1.15;;;0.90;99.90;;;;;;5053947;28;20040;-71
2023/03/15 06:24:12;;;;;;;7.43;1.25;;;0.90;99.90;;;;;;5057513;28;20044;-71
2023/03/15 06:26:41;;;;;;;8.32;1.20;;;0.90;99.90;;;;;;5059232;28;20036;-72
2023/03/15 06:29:07;;;;;;;7.88;1.85;;;0.90;99.90;;;;;;5054362;28;20037;-72
2023/03/15 06:31:32;;;;;;;10.13;0.95;;;0.90;99.90;;;;;;5043518;28;20105;-72
2023/03/15 06:33:58;;;;;;;7.10;1.20;;;0.90;99.90;;;;;;5060915;28;20909;-72
2023/03/15 06:36:24;;;;;;;5.28;1.02;;;1.30;99.90;;;;;;5054499;28;20053;-72
2023/03/15 06:38:53;;;;;;;5.38;1.00;;;0.90;99.90;;;;;;5036008;28;20106;-72
2023/03/15 06:41:20;;;;;;;5.70;0.90;;;0.90;99.90;;;;;;5038633;28;20520;-73
2023/03/15 06:43:46;;;;;;;5.70;1.00;;;0.90;99.90;;;;;;5040270;28;20109;-72
2023/03/15 06:46:12;;;;;;;6.32;1.10;;;1.00;99.90;;;;;;5038702;28;20102;-72
2023/03/15 06:48:37;;;;;;;7.78;1.02;;;1.00;99.90;;;;;;5030216;28;20433;-72
2023/03/15 06:51:04;;;;;;;9.18;1.40;;;1.10;99.90;;;;;;5040891;28;20045;-73
2023/03/15 06:53:30;;;;;;;10.82;1.55;;;1.20;99.90;;;;;;5041813;28;20406;-73
2023/03/15 06:55:56;;;;;;;9.40;1.33;;;1.80;99.90;;;;;;5038373;28;20387;-73
2023/03/15 06:58:22;;;;;;;6.18;0.93;;;1.40;99.90;;;;;;5039116;28;20063;-73
2023/03/15 07:00:49;;;;;;;6.10;1.40;;;1.40;99.90;;;;;;5038522;28;20044;-73
2023/03/15 07:03:15;;;;;;;8.63;1.30;;;1.50;99.90;;;;;;5026557;28;20869;-73
2023/03/15 07:05:44;;;;;;;7.93;1.30;;;1.60;99.90;;;;;;5018317;28;20044;-72
2023/03/15 07:08:10;;;;;;;8.02;1.48;;;1.70;99.90;;;;;;5041868;28;20179;-73
2023/03/15 07:10:35;;;;;;;9.15;1.50;;;1.50;99.90;;;;;;5037944;28;20049;-73
2023/03/15 07:13:01;;;;;;;12.60;1.40;;;2.50;99.90;;;;;;5024680;28;20212;-72
2023/03/15 07:15:27;;;;;;;9.02;1.35;;;2.30;99.90;;;;;;5040595;28;20618;-73
2023/03/15 07:17:53;;;;;;;6.82;1.65;;;2.00;99.90;;;;;;5021785;28;20075;-73
2023/03/15 07:20:18;;;;;;;8.27;1.60;;;2.20;99.90;;;;;;5028981;28;20196;-74
2023/03/15 07:22:44;;;;;;;12.45;2.50;;;2.30;99.90;;;;;;5029099;28;20041;-73
2023/03/15 07:25:10;;;;;;;9.02;1.23;;;2.40;99.90;;;;;;5036258;28;20131;-74
2023/03/15 07:27:36;;;;;;;10.05;1.52;;;2.60;99.90;;;;;;5057541;28;20055;-74
2023/03/15 07:30:02;;;;;;;9.48;1.65;;;2.70;99.90;;;;;;5055352;28;20118;-74
2023/03/15 07:32:29;;;;;;;8.65;1.38;;;2.90;99.90;;;;;;5052082;28;20036;-74
2023/03/15 07:34:59;;;;;;;10.93;1.52;;;3.00;99.90;;;;;;5056290;28;20043;-74
2023/03/15 07:37:27;;;;;;;8.07;1.70;;;3.20;99.90;;;;;;5053546;28;20044;-74
2023/03/15 07:39:52;;;;;;;8.10;1.42;;;3.40;99.90;;;;;;5051211;28;20052;-74
2023/03/15 07:42:19;;;;;;;10.95;1.50;;;3.50;99.90;;;;;;5042203;28;20520;-74
2023/03/15 07:44:44;;;;;;;11.18;1.25;;;3.70;99.90;;;;;;5039637;28;20071;-74
2023/03/15 07:47:10;;;;;;;9.70;1.23;;;4.20;99.90;;;;;;5054044;28;20064;-75
2023/03/15 07:49:36;;;;;;;9.82;1.50;;;4.40;99.90;;;;;;5058279;28;20037;-74
2023/03/15 07:52:02;;;;;;;10.57;1.85;;;4.10;99.90;;;;;;5066557;28;20056;-75
2023/03/15 07:54:30;;;;;;;11.88;1.42;;;4.20;99.90;;;;;;5057090;28;20041;-75
2023/03/15 07:56:56;;;;;;;7.93;1.75;;;4.30;99.90;;;;;;5054511;28;20113;-74
2023/03/15 07:59:21;;;;;;;10.23;1.65;;;4.40;99.90;;;;;;5055470;28;20040;-75
2023/03/15 08:01:47;;;;;;;8.35;1.55;;;4.50;99.90;;;;;;5057324;28;20061;-75
2023/03/15 08:04:13;;;;;;;7.88;1.30;;;4.60;99.90;;;;;;5059014;28;20127;-75
2023/03/15 08:06:42;;;;;;;10.15;1.27;;;4.70;99.90;;;;;;5055561;28;20127;-75
2023/03/15 08:09:07;;;;;;;10.00;1.50;;;4.80;99.90;;;;;;5058540;28;20063;-75
2023/03/15 08:11:33;;;;;;;10.07;1.33;;;5.00;99.90;;;;;;5042929;28;20628;-75
2023/03/15 08:13:59;;;;;;;12.15;1.50;;;5.10;99.90;;;;;;5058148;28;20076;-75
2023/03/15 08:16:25;;;;;;;9.27;1.40;;;5.10;99.90;;;;;;5062248;28;20052;-74
2023/03/15 08:18:50;;;;;;;10.57;1.90;;;5.20;99.90;;;;;;5058049;28;20558;-74
2023/03/15 08:21:16;;;;;;;11.10;1.73;;;5.30;99.90;;;;;;5061639;28;20050;-74
2023/03/15 08:23:42;;;;;;;8.20;1.90;;;5.40;99.90;;;;;;5062717;28;20137;-75
2023/03/15 08:26:08;;;;;;;9.63;1.33;;;6.00;99.90;;;;;;5061411;28;20584;-75
2023/03/15 08:28:34;;;;;;;8.73;1.60;;;5.60;99.90;;;;;;5060488;28;20051;-75
2023/03/15 08:31:00;;;;;;;5.93;1.48;;;5.70;99.90;;;;;;5060677;28;20493;-75
2023/03/15 08:33:29;;;;;;;7.80;1.42;;;5.70;99.90;;;;;;5058082;28;20447;-75
2023/03/15 08:35:55;;;;;;;7.18;1.50;;;5.80;99.90;;;;;;5061129;28;20513;-75
2023/03/15 08:38:20;;;;;;;7.30;1.60;;;5.80;99.90;;;;;;5060762;28;20049;-75
2023/03/15 08:40:46;;;;;;;8.43;1.20;;;5.90;99.90;;;;;;5056467;28;20056;-75
2023/03/15 08:43:12;;;;;;;6.22;1.50;;;5.90;99.90;;;;;;5059311;28;20080;-75
2023/03/15 08:45:38;;;;;;;10.63;1.20;;;6.00;99.90;;;;;;5058002;28;20051;-75
2023/03/15 08:48:04;;;;;;;7.43;1.17;;;6.00;99.90;;;;;;5057252;28;20052;-75
2023/03/15 08:50:31;;;;;;;6.95;1.63;;;6.00;99.90;;;;;;5059866;28;20037;-75
2023/03/15 08:52:57;;;;;;;8.18;1.63;;;6.00;99.90;;;;;;5062115;28;20187;-75
2023/03/15 08:55:23;;;;;;;10.77;1.50;;;6.00;99.90;;;;;;5060800;28;20159;-75
2023/03/15 08:57:48;;;;;;;8.68;1.60;;;6.00;99.90;;;;;;5062450;28;20717;-74
2023/03/15 09:00:22;;;;;;;6.07;1.20;;;6.00;99.90;;;;;;5060632;28;20032;-75
2023/03/15 09:02:50;;;;;;;7.90;1.30;;;6.00;99.90;;;;;;5057390;28;20668;-74
2023/03/15 09:05:17;;;;;;;9.07;1.30;;;6.10;99.90;;;;;;5057384;28;20037;-74
2023/03/15 09:07:43;;;;;;;8.75;1.40;;;6.10;99.90;;;;;;5060822;28;20037;-74
2023/03/15 09:10:13;;;;;;;10.07;1.67;;;6.20;99.90;;;;;;5036782;28;20397;-75
2023/03/15 09:12:41;;;;;;;8.35;1.38;;;6.30;99.90;;;;;;5062052;28;20052;-75
2023/03/15 09:15:07;;;;;;;8.73;1.33;;;6.30;99.90;;;;;;5054475;28;20044;-75
2023/03/15 09:17:33;;;;;;;8.82;1.40;;;6.30;99.90;;;;;;5056471;28;20052;-75
2023/03/15 09:19:59;;;;;;;6.90;1.20;;;6.30;99.90;;;;;;5057942;28;20045;-75
2023/03/15 09:22:25;;;;;;;11.30;1.45;;;6.30;99.90;;;;;;5062702;28;20071;-75
2023/03/15 09:24:51;;;;;;;10.75;1.30;;;6.40;99.90;;;;;;5040850;28;20040;-75
2023/03/15 09:27:17;;;;;;;10.68;1.55;;;6.30;99.90;;;;;;5043428;28;20544;-75
2023/03/15 09:29:43;;;;;;;6.95;1.38;;;6.30;99.90;;;;;;5059532;28;20045;-75
2023/03/15 09:32:12;;;;;;;9.32;1.88;;;6.60;99.90;;;;;;5056911;28;20486;-75
2023/03/15 09:34:38;;;;;;;8.30;1.40;;;6.40;99.90;;;;;;5059160;28;20047;-76
2023/03/15 09:37:04;;;;;;;9.43;1.10;;;6.50;99.90;;;;;;5060249;28;20060;-75
2023/03/15 09:39:32;;;;;;;7.53;1.40;;;6.60;99.90;;;;;;5042998;28;20140;-76
2023/03/15 09:42:00;;;;;;;11.85;1.48;;;6.50;99.90;;;;;;5045180;28;20041;-76
2023/03/15 09:44:44;;;;;;;8.30;1.23;;;6.60;99.90;;;;;;5060713;28;20509;-75
2023/03/15 09:47:19;;;;;;;6.65;1.25;;;6.50;99.90;;;;;;5042268;28;20529;-75
2023/03/15 09:49:56;;;;;;;12.20;2.03;;;6.50;99.90;;;;;;5089416;28;20087;-75
2023/03/15 09:52:52;;;;;;;8.88;1.23;;;6.50;99.90;;;;;;5087673;28;20127;-75
2023/03/15 09:55:23;;;;;;;5.63;0.80;;;6.60;99.90;;;;;;5063489;28;20055;-76
2023/03/15 09:58:23;;;;;;;7.90;1.50;;;6.60;99.90;;;;;;5085386;28;20052;-75
2023/03/15 10:00:53;;;;;;;10.13;1.23;;;6.70;99.90;;;;;;5056624;28;20064;-75
2023/03/15 10:03:27;;;;;;;9.63;1.35;;;6.70;99.90;;;;;;5059756;28;20125;-75
2023/03/15 10:05:58;;;;;;;10.77;1.90;;;6.70;99.90;;;;;;5043017;28;20055;-75
2023/03/15 10:08:24;;;;;;;10.38;1.50;;;6.70;99.90;;;;;;5059041;28;20048;-76
2023/03/15 10:11:16;;;;;;;15.35;1.70;;;6.80;99.90;;;;;;5053271;28;20141;-75
2023/03/15 10:13:51;;;;;;;8.45;1.40;;;6.90;99.90;;;;;;5055689;28;20611;-75
2023/03/15 10:16:55;;;;;;;11.75;1.10;;;6.80;99.90;;;;;;5057356;28;20136;-76
2023/03/15 10:19:57;;;;;;;17.20;2.85;;;6.80;99.90;;;;;;5016702;28;20136;-75
2023/03/15 10:23:04;;;;;;;9.38;2.10;;;6.90;99.90;;;;;;5037923;28;20041;-75
2023/03/15 10:25:31;;;;;;;8.73;1.48;;;6.90;99.90;;;;;;5039957;28;20044;-75
2023/03/15 10:28:08;;;;;;;7.60;1.17;;;6.80;99.90;;;;;;5052269;28;20036;-75
2023/03/15 10:30:37;;;;;;;7.30;1.50;;;6.60;99.90;;;;;;5054854;28;20582;-75
2023/03/15 10:33:17;;;;;;;9.30;1.60;;;6.60;99.90;;;;;;5058900;28;20037;-75
2023/03/15 10:35:43;;;;;;;10.13;1.42;;;6.60;99.90;;;;;;5041043;28;20048;-76
2023/03/15 10:38:20;;;;;;;9.95;1.63;;;6.70;99.90;;;;;;5060673;28;20498;-76
2023/03/15 10:40:49;;;;;;;11.55;1.67;;;6.80;99.90;;;;;;5058985;28;20181;-76
2023/03/15 10:43:25;;;;;;;6.97;1.40;;;6.80;99.90;;;;;;5044236;28;20051;-76
2023/03/15 10:46:04;;;;;;;8.65;1.55;;;6.90;99.90;;;;;;5061521;28;20583;-76
2023/03/15 10:48:53;;;;;;;4.05;0.90;;;7.00;99.90;;;;;;5057156;28;20119;-76
2023/03/15 10:51:27;;;;;;;7.57;1.25;;;7.00;99.90;;;;;;5059606;28;20776;-77
2023/03/15 10:54:05;;;;;;;11.07;1.20;;;7.00;99.90;;;;;;5058043;28;20730;-76
2023/03/15 10:56:51;;;;;;;9.65;1.63;;;6.90;99.90;;;;;;5054141;28;20647;-76
2023/03/15 10:59:25;;;;;;;12.27;1.58;;;6.80;99.90;;;;;;5056371;28;20098;-75
2023/03/15 11:01:53;;;;;;;10.40;1.42;;;6.80;99.90;;;;;;5062015;28;20047;-76
2023/03/15 11:04:20;;;;;;;8.73;1.23;;;6.90;99.90;;;;;;5056549;28;20041;-76
2023/03/15 11:07:08;;;;;;;7.35;1.45;;;6.90;99.90;;;;;;5061911;28;20049;-75
2023/03/15 11:09:42;;;;;;;9.30;1.70;;;7.00;99.90;;;;;;5072940;28;20040;-76
2023/03/15 11:12:15;;;;;;;8.68;1.48;;;7.40;99.90;;;;;;5058848;28;20282;-75
2023/03/15 11:14:45;;;;;;;10.13;1.40;;;7.10;99.90;;;;;;5062303;28;20123;-75
2023/03/15 11:17:23;;;;;;;;;;;7.20;99.90;;;;;;5061891;28;20040;-75
2023/03/15 11:20:10;;;;;;;9.80;1.52;;;7.30;99.90;;;;;;5058290;28;19924;-75
2023/03/15 11:22:35;;;;;;;8.68;1.75;;;7.50;99.90;;;;;;5059900;28;20509;-75
2023/03/15 11:25:02;;;;;;;11.05;1.45;;;7.60;99.90;;;;;;5057548;28;20069;-77
2023/03/15 11:27:28;;;;;;;11.40;1.60;;;7.60;99.90;;;;;;5053324;28;20071;-76
2023/03/15 11:29:57;;;;;;;10.88;1.40;;;7.60;99.90;;;;;;5059328;28;20623;-75
2023/03/15 11:32:30;;;;;;;6.20;1.30;;;7.70;99.90;;;;;;5043612;28;20040;-76
2023/03/15 11:35:20;;;;;;;8.90;1.05;;;7.60;99.90;;;;;;5059517;28;20044;-75
2023/03/15 11:37:52;;;;;;;8.73;1.25;;;7.40;99.90;;;;;;5040578;28;20398;-76
2023/03/15 11:40:42;;;;;;;7.60;1.25;;;7.40;99.90;;;;;;5059849;28;20769;-75
2023/03/15 11:43:24;;;;;;;5.25;0.90;;;7.40;99.90;;;;;;5060216;28;20119;-75
2023/03/15 11:45:56;;;;;;;5.32;0.82;;;7.50;99.90;;;;;;5055369;28;20037;-75
2023/03/15 11:48:33;;;;;;;4.97;1.13;;;7.50;99.90;;;;;;5059526;28;20076;-76
2023/03/15 11:51:00;;;;;;;8.57;1.17;;;7.60;99.90;;;;;;5059373;28;20044;-76
2023/03/15 11:53:33;;;;;;;6.65;1.20;;;7.60;99.90;;;;;;5062129;28;20052;-76
2023/03/15 11:56:23;;;;;;;8.95;1.30;;;7.70;99.90;;;;;;5059972;28;20047;-76
2023/03/15 11:59:11;;;;;;;8.98;1.70;;;7.70;99.90;;;;;;5070758;28;20135;-76
2023/03/15 12:02:06;;;;;;;10.20;1.48;;;7.70;99.90;;;;;;5059580;28;20045;-76
2023/03/15 12:04:32;;;;;;;7.50;1.17;;;7.70;99.90;;;;;;5050742;28;20088;-75
2023/03/15 12:07:02;;;;;;;7.90;1.30;;;7.80;99.90;;;;;;5058308;28;20748;-76
2023/03/15 12:09:31;;;;;;;7.88;1.10;;;7.80;99.90;;;;;;5058507;28;20052;-76
2023/03/15 12:12:04;;;;;;;8.63;1.40;;;7.90;99.90;;;;;;5041203;28;20071;-76
2023/03/15 12:14:35;;;;;;;10.45;1.45;;;7.90;99.90;;;;;;5059591;28;20047;-76
2023/03/15 12:17:41;;;;;;;8.75;1.58;;;7.90;99.90;;;;;;5058853;28;20045;-77
2023/03/15 12:20:16;;;;;;;9.23;1.77;;;8.00;99.90;;;;;;5045861;28;20049;-77
2023/03/15 12:23:06;;;;;;;7.88;1.80;;;7.80;99.90;;;;;;5040117;28;20056;-75
2023/03/15 12:25:38;;;;;;;9.05;1.27;;;8.10;99.90;;;;;;5057388;28;20601;-76
2023/03/15 12:28:17;;;;;;;10.27;1.65;;;8.10;99.90;;;;;;5058672;28;20076;-75
2023/03/15 12:30:44;;;;;;;9.80;1.40;;;8.10;99.90;;;;;;5060432;28;20676;-76
2023/03/15 12:33:21;;;;;;;8.00;1.40;;;8.30;99.90;;;;;;5059297;28;20123;-76
2023/03/15 12:35:48;;;;;;;6.18;1.00;;;8.20;99.90;;;;;;5058873;28;20559;-76
2023/03/15 12:38:21;;;;;;;9.05;1.17;;;8.20;99.90;;;;;;5056299;28;20037;-76
2023/03/15 12:40:47;;;;;;;11.35;1.30;;;8.30;99.90;;;;;;5038194;28;20141;-76
2023/03/15 12:43:13;;;;;;;9.45;1.38;;;8.20;99.90;;;;;;5067749;28;20065;-76
2023/03/15 12:45:42;;;;;;;8.50;1.20;;;8.20;99.90;;;;;;5056012;28;20133;-75
2023/03/15 12:48:11;;;;;;;8.25;1.10;;;8.20;99.90;;;;;;5038237;28;20159;-76
2023/03/15 12:50:43;;;;;;;10.70;1.40;;;8.20;99.90;;;;;;5040105;28;20098;-76
2023/03/15 12:53:27;;;;;;;10.43;1.42;;;8.30;99.90;;;;;;5056052;28;20054;-76
2023/03/15 12:55:54;;;;;;;8.43;1.20;;;8.40;99.90;;;;;;5063356;28;20044;-76
2023/03/15 12:58:28;;;;;;;7.97;1.33;;;8.40;99.90;;;;;;5052617;28;20501;-77
2023/03/15 13:00:54;;;;;;;4.90;1.10;;;8.40;99.90;;;;;;5050302;28;20044;-76
2023/03/15 13:03:22;;;;;;;7.93;1.50;;;8.30;99.90;;;;;;5044410;28;20719;-76
2023/03/15 13:06:16;;;;;;;6.80;1.88;;;8.30;99.90;;;;;;5038266;28;20053;-75
2023/03/15 13:09:13;;;;;;;7.30;1.33;;;8.30;99.90;;;;;;5053896;28;20043;-77